sensor_id;sensor_type;location;lat;lon;timestamp;pressure;altitude;pressure_sealevel;temperature
49785;BMP280;35679;38.732;-121.358;2023-04-01T00:01:35;101929.75;;;16.81
49785;BMP280;35679;38.732;-121.358;2023-04-01T00:04:25;101934.91;;;16.82
49785;BMP280;35679;38.732;-121.358;2023-04-01T00:07:14;101937.38;;;16.84
49785;BMP280;35679;38.732;-121.358;2023-04-01T00:10:09;101923.44;;;16.82
49785;BMP280;35679;38.732;-121.358;2023-04-01T00:12:59;101925.72;;;16.85
49785;BMP280;35679;38.732;-121.358;2023-04-01T00:15:48;101924.72;;;16.86
49785;BMP280;35679;38.732;-121.358;2023-04-01T00:18:38;101910.22;;;16.88
49785;BMP280;35679;38.732;-121.358;2023-04-01T00:21:28;101923.34;;;16.90
49785;BMP280;35679;38.732;-121.358;2023-04-01T00:24:17;101924.19;;;16.90
49785;BMP280;35679;38.732;-121.358;2023-04-01T00:27:07;101925.03;;;16.91
49785;BMP280;35679;38.732;-121.358;2023-04-01T00:29:57;101931.00;;;16.93
49785;BMP280;35679;38.732;-121.358;2023-04-01T00:32:46;101927.31;;;16.94
49785;BMP280;35679;38.732;-121.358;2023-04-01T00:35:36;101926.31;;;16.95
49785;BMP280;35679;38.732;-121.358;2023-04-01T00:38:25;101926.31;;;16.95
49785;BMP280;35679;38.732;-121.358;2023-04-01T00:41:15;101923.47;;;16.96
49785;BMP280;35679;38.732;-121.358;2023-04-01T00:44:18;101932.50;;;16.95
49785;BMP280;35679;38.732;-121.358;2023-04-01T00:47:09;101920.97;;;16.95
49785;BMP280;35679;38.732;-121.358;2023-04-01T00:49:59;101917.31;;;16.96
49785;BMP280;35679;38.732;-121.358;2023-04-01T00:52:49;101918.97;;;16.97
49785;BMP280;35679;38.732;-121.358;2023-04-01T00:55:42;101922.47;;;16.97
49785;BMP280;35679;38.732;-121.358;2023-04-01T00:58:36;101919.59;;;16.99
49785;BMP280;35679;38.732;-121.358;2023-04-01T01:01:28;101922.13;;;17.00
49785;BMP280;35679;38.732;-121.358;2023-04-01T01:04:27;101899.13;;;16.99
49785;BMP280;35679;38.732;-121.358;2023-04-01T01:10:45;101908.13;;;16.98
49785;BMP280;35679;38.732;-121.358;2023-04-01T01:16:45;101917.78;;;16.99
49785;BMP280;35679;38.732;-121.358;2023-04-01T01:29:59;101932.59;;;17.02
49785;BMP280;35679;38.732;-121.358;2023-04-01T01:35:56;101925.59;;;17.01
49785;BMP280;35679;38.732;-121.358;2023-04-01T01:38:48;101937.28;;;17.00
49785;BMP280;35679;38.732;-121.358;2023-04-01T01:41:42;101934.78;;;16.98
49785;BMP280;35679;38.732;-121.358;2023-04-01T01:44:34;101941.78;;;16.99
49785;BMP280;35679;38.732;-121.358;2023-04-01T01:47:25;101932.94;;;16.99
49785;BMP280;35679;38.732;-121.358;2023-04-01T01:50:17;101934.97;;;16.97
49785;BMP280;35679;38.732;-121.358;2023-04-01T01:53:10;101940.31;;;16.97
49785;BMP280;35679;38.732;-121.358;2023-04-01T01:56:00;101937.63;;;16.97
49785;BMP280;35679;38.732;-121.358;2023-04-01T01:59:06;101940.50;;;16.95
49785;BMP280;35679;38.732;-121.358;2023-04-01T02:01:58;101943.31;;;16.94
49785;BMP280;35679;38.732;-121.358;2023-04-01T02:04:49;101952.34;;;16.93
49785;BMP280;35679;38.732;-121.358;2023-04-01T02:07:43;101951.78;;;16.97
49785;BMP280;35679;38.732;-121.358;2023-04-01T02:10:39;101947.47;;;16.96
49785;BMP280;35679;38.732;-121.358;2023-04-01T02:13:29;101936.50;;;16.91
49785;BMP280;35679;38.732;-121.358;2023-04-01T02:16:31;101944.69;;;16.90
49785;BMP280;35679;38.732;-121.358;2023-04-01T02:19:27;101945.69;;;16.89
49785;BMP280;35679;38.732;-121.358;2023-04-01T02:22:29;101947.53;;;16.88
49785;BMP280;35679;38.732;-121.358;2023-04-01T02:25:27;101938.72;;;16.88
49785;BMP280;35679;38.732;-121.358;2023-04-01T02:28:18;101943.38;;;16.86
49785;BMP280;35679;38.732;-121.358;2023-04-01T02:31:10;101933.53;;;16.86
49785;BMP280;35679;38.732;-121.358;2023-04-01T02:34:00;101943.38;;;16.86
49785;BMP280;35679;38.732;-121.358;2023-04-01T02:36:51;101939.06;;;16.85
49785;BMP280;35679;38.732;-121.358;2023-04-01T02:39:42;101933.72;;;16.85
49785;BMP280;35679;38.732;-121.358;2023-04-01T02:42:32;101925.25;;;16.81
49785;BMP280;35679;38.732;-121.358;2023-04-01T02:45:21;101927.09;;;16.81
49785;BMP280;35679;38.732;-121.358;2023-04-01T02:48:10;101921.94;;;16.79
49785;BMP280;35679;38.732;-121.358;2023-04-01T02:51:01;101931.94;;;16.77
49785;BMP280;35679;38.732;-121.358;2023-04-01T02:53:50;101930.94;;;16.78
49785;BMP280;35679;38.732;-121.358;2023-04-01T02:56:40;101934.97;;;16.74
49785;BMP280;35679;38.732;-121.358;2023-04-01T02:59:29;101937.81;;;16.73
49785;BMP280;35679;38.732;-121.358;2023-04-01T03:02:19;101939.84;;;16.71
49785;BMP280;35679;38.732;-121.358;2023-04-01T03:05:09;101948.00;;;16.69
49785;BMP280;35679;38.732;-121.358;2023-04-01T03:07:58;101944.50;;;16.69
49785;BMP280;35679;38.732;-121.358;2023-04-01T03:10:48;101957.19;;;16.67
49785;BMP280;35679;38.732;-121.358;2023-04-01T03:13:38;101960.88;;;16.66
49785;BMP280;35679;38.732;-121.358;2023-04-01T03:16:29;101963.72;;;16.64
49785;BMP280;35679;38.732;-121.358;2023-04-01T03:19:18;101961.19;;;16.63
49785;BMP280;35679;38.732;-121.358;2023-04-01T03:22:10;101963.38;;;16.59
49785;BMP280;35679;38.732;-121.358;2023-04-01T03:25:00;101961.75;;;16.58
49785;BMP280;35679;38.732;-121.358;2023-04-01T03:27:49;101964.56;;;16.57
49785;BMP280;35679;38.732;-121.358;2023-04-01T03:30:39;101962.06;;;16.55
49785;BMP280;35679;38.732;-121.358;2023-04-01T03:33:29;101958.78;;;16.53
49785;BMP280;35679;38.732;-121.358;2023-04-01T03:36:18;101959.97;;;16.51
49785;BMP280;35679;38.732;-121.358;2023-04-01T03:39:08;101956.44;;;16.50
49785;BMP280;35679;38.732;-121.358;2023-04-01T03:42:01;101963.63;;;16.50
49785;BMP280;35679;38.732;-121.358;2023-04-01T03:44:50;101965.63;;;16.48
49785;BMP280;35679;38.732;-121.358;2023-04-01T03:47:40;101962.31;;;16.46
49785;BMP280;35679;38.732;-121.358;2023-04-01T03:50:30;101966.16;;;16.43
49785;BMP280;35679;38.732;-121.358;2023-04-01T03:53:19;101970.63;;;16.43
49785;BMP280;35679;38.732;-121.358;2023-04-01T03:56:10;101975.34;;;16.41
49785;BMP280;35679;38.732;-121.358;2023-04-01T03:59:03;101983.31;;;16.41
49785;BMP280;35679;38.732;-121.358;2023-04-01T04:01:52;101975.66;;;16.38
49785;BMP280;35679;38.732;-121.358;2023-04-01T04:04:42;101982.00;;;16.37
49785;BMP280;35679;38.732;-121.358;2023-04-01T04:07:34;101982.97;;;16.36
49785;BMP280;35679;38.732;-121.358;2023-04-01T04:10:27;101980.69;;;16.33
49785;BMP280;35679;38.732;-121.358;2023-04-01T04:13:17;101982.53;;;16.33
49785;BMP280;35679;38.732;-121.358;2023-04-01T04:16:14;101982.69;;;16.31
49785;BMP280;35679;38.732;-121.358;2023-04-01T04:19:08;101995.53;;;16.28
49785;BMP280;35679;38.732;-121.358;2023-04-01T04:21:58;101992.03;;;16.27
49785;BMP280;35679;38.732;-121.358;2023-04-01T04:24:50;101994.84;;;16.26
49785;BMP280;35679;38.732;-121.358;2023-04-01T04:27:39;101998.69;;;16.23
49785;BMP280;35679;38.732;-121.358;2023-04-01T04:30:32;102000.53;;;16.23
49785;BMP280;35679;38.732;-121.358;2023-04-01T04:33:24;101999.84;;;16.21
49785;BMP280;35679;38.732;-121.358;2023-04-01T04:36:14;102001.84;;;16.19
49785;BMP280;35679;38.732;-121.358;2023-04-01T04:39:03;101996.69;;;16.17
49785;BMP280;35679;38.732;-121.358;2023-04-01T04:41:54;102003.03;;;16.16
49785;BMP280;35679;38.732;-121.358;2023-04-01T04:44:44;101999.72;;;16.14
49785;BMP280;35679;38.732;-121.358;2023-04-01T04:47:33;102007.72;;;16.14
49785;BMP280;35679;38.732;-121.358;2023-04-01T04:50:24;102005.03;;;16.14
49785;BMP280;35679;38.732;-121.358;2023-04-01T04:53:15;102005.53;;;16.10
49785;BMP280;35679;38.732;-121.358;2023-04-01T04:56:04;102006.72;;;16.07
49785;BMP280;35679;38.732;-121.358;2023-04-01T04:59:03;102004.25;;;16.06
49785;BMP280;35679;38.732;-121.358;2023-04-01T05:02:02;102000.09;;;16.03
49785;BMP280;35679;38.732;-121.358;2023-04-01T05:04:51;101996.94;;;16.00
49785;BMP280;35679;38.732;-121.358;2023-04-01T05:07:41;101998.91;;;15.98
49785;BMP280;35679;38.732;-121.358;2023-04-01T05:10:30;102000.09;;;15.95
49785;BMP280;35679;38.732;-121.358;2023-04-01T05:13:20;101991.47;;;15.93
49785;BMP280;35679;38.732;-121.358;2023-04-01T05:16:11;101989.97;;;15.91
49785;BMP280;35679;38.732;-121.358;2023-04-01T05:19:02;101994.81;;;15.87
49785;BMP280;35679;38.732;-121.358;2023-04-01T05:21:54;101992.16;;;15.87
49785;BMP280;35679;38.732;-121.358;2023-04-01T05:24:43;101983.31;;;15.87
49785;BMP280;35679;38.732;-121.358;2023-04-01T05:27:33;101978.16;;;15.85
49785;BMP280;35679;38.732;-121.358;2023-04-01T05:30:23;101981.00;;;15.84
49785;BMP280;35679;38.732;-121.358;2023-04-01T05:33:20;101981.19;;;15.82
49785;BMP280;35679;38.732;-121.358;2023-04-01T05:36:14;101985.84;;;15.80
49785;BMP280;35679;38.732;-121.358;2023-04-01T05:39:05;101984.16;;;15.79
49785;BMP280;35679;38.732;-121.358;2023-04-01T05:41:54;101981.84;;;15.76
49785;BMP280;35679;38.732;-121.358;2023-04-01T05:44:44;101980.00;;;15.77
49785;BMP280;35679;38.732;-121.358;2023-04-01T05:47:59;101979.19;;;15.76
49785;BMP280;35679;38.732;-121.358;2023-04-01T05:50:52;101976.72;;;15.75
49785;BMP280;35679;38.732;-121.358;2023-04-01T05:53:42;101989.84;;;15.76
49785;BMP280;35679;38.732;-121.358;2023-04-01T05:56:32;101996.50;;;15.73
49785;BMP280;35679;38.732;-121.358;2023-04-01T05:59:22;101988.03;;;15.69
49785;BMP280;35679;38.732;-121.358;2023-04-01T06:02:17;101988.84;;;15.70
49785;BMP280;35679;38.732;-121.358;2023-04-01T06:08:15;101990.38;;;15.64
49785;BMP280;35679;38.732;-121.358;2023-04-01T06:14:20;101996.00;;;15.61
49785;BMP280;35679;38.732;-121.358;2023-04-01T06:24:08;101993.03;;;15.56
49785;BMP280;35679;38.732;-121.358;2023-04-01T06:30:25;101985.56;;;15.52
49785;BMP280;35679;38.732;-121.358;2023-04-01T06:33:32;101990.38;;;15.48
49785;BMP280;35679;38.732;-121.358;2023-04-01T06:40:01;101994.38;;;15.44
49785;BMP280;35679;38.732;-121.358;2023-04-01T06:49:56;101989.56;;;15.40
49785;BMP280;35679;38.732;-121.358;2023-04-01T06:56:33;101997.88;;;15.37
49785;BMP280;35679;38.732;-121.358;2023-04-01T06:59:32;101987.56;;;15.34
49785;BMP280;35679;38.732;-121.358;2023-04-01T07:03:10;101982.41;;;15.32
49785;BMP280;35679;38.732;-121.358;2023-04-01T07:05:42;101985.44;;;15.29
49785;BMP280;35679;38.732;-121.358;2023-04-01T07:08:36;101980.91;;;15.30
49785;BMP280;35679;38.732;-121.358;2023-04-01T07:11:31;101993.41;;;15.29
49785;BMP280;35679;38.732;-121.358;2023-04-01T07:14:41;102001.53;;;15.28
49785;BMP280;35679;38.732;-121.358;2023-04-01T07:17:33;102002.53;;;15.27
49785;BMP280;35679;38.732;-121.358;2023-04-01T07:20:36;101997.22;;;15.27
49785;BMP280;35679;38.732;-121.358;2023-04-01T07:23:32;102000.19;;;15.24
49785;BMP280;35679;38.732;-121.358;2023-04-01T07:26:45;102009.34;;;15.21
49785;BMP280;35679;38.732;-121.358;2023-04-01T07:29:39;102000.81;;;15.18
49785;BMP280;35679;38.732;-121.358;2023-04-01T07:35:58;102003.81;;;15.15
49785;BMP280;35679;38.732;-121.358;2023-04-01T07:50:17;102005.66;;;15.07
49785;BMP280;35679;38.732;-121.358;2023-04-01T07:52:46;101995.19;;;15.05
49785;BMP280;35679;38.732;-121.358;2023-04-01T07:55:51;101990.84;;;15.04
49785;BMP280;35679;38.732;-121.358;2023-04-01T08:02:30;101992.19;;;15.00
49785;BMP280;35679;38.732;-121.358;2023-04-01T08:06:05;101994.16;;;14.98
49785;BMP280;35679;38.732;-121.358;2023-04-01T08:15:42;101998.16;;;14.94
49785;BMP280;35679;38.732;-121.358;2023-04-01T08:32:08;101989.50;;;14.84
49785;BMP280;35679;38.732;-121.358;2023-04-01T08:38:40;101995.31;;;14.80
49785;BMP280;35679;38.732;-121.358;2023-04-01T09:08:31;102014.38;;;14.67
49785;BMP280;35679;38.732;-121.358;2023-04-01T09:40:36;102036.56;;;14.50
49785;BMP280;35679;38.732;-121.358;2023-04-01T09:46:40;102030.59;;;14.48
49785;BMP280;35679;38.732;-121.358;2023-04-01T10:03:47;102004.97;;;14.40
49785;BMP280;35679;38.732;-121.358;2023-04-01T10:28:36;101975.75;;;14.32
49785;BMP280;35679;38.732;-121.358;2023-04-01T11:05:21;101943.84;;;14.24
49785;BMP280;35679;38.732;-121.358;2023-04-01T11:21:28;101954.00;;;14.20
49785;BMP280;35679;38.732;-121.358;2023-04-01T11:31:40;101946.81;;;14.13
49785;BMP280;35679;38.732;-121.358;2023-04-01T11:48:20;101937.81;;;14.06
49785;BMP280;35679;38.732;-121.358;2023-04-01T12:04:06;101942.25;;;13.97
49785;BMP280;35679;38.732;-121.358;2023-04-01T12:07:15;101943.22;;;13.96
49785;BMP280;35679;38.732;-121.358;2023-04-01T12:10:19;101934.28;;;13.97
49785;BMP280;35679;38.732;-121.358;2023-04-01T12:17:18;101941.72;;;13.94
49785;BMP280;35679;38.732;-121.358;2023-04-01T12:30:14;101942.34;;;13.88
49785;BMP280;35679;38.732;-121.358;2023-04-01T12:33:26;101940.72;;;13.87
49785;BMP280;35679;38.732;-121.358;2023-04-01T12:36:27;101938.88;;;13.87
49785;BMP280;35679;38.732;-121.358;2023-04-01T12:42:44;101939.88;;;13.86
49785;BMP280;35679;38.732;-121.358;2023-04-01T12:45:54;101940.19;;;13.83
49785;BMP280;35679;38.732;-121.358;2023-04-01T12:49:17;101937.53;;;13.83
49785;BMP280;35679;38.732;-121.358;2023-04-01T13:02:11;101938.69;;;13.81
49785;BMP280;35679;38.732;-121.358;2023-04-01T13:21:16;101949.78;;;13.84
49785;BMP280;35679;38.732;-121.358;2023-04-01T13:24:24;101955.25;;;13.83
49785;BMP280;35679;38.732;-121.358;2023-04-01T13:27:39;101955.44;;;13.81
49785;BMP280;35679;38.732;-121.358;2023-04-01T13:30:47;101958.53;;;13.77
49785;BMP280;35679;38.732;-121.358;2023-04-01T13:33:47;101961.53;;;13.74
49785;BMP280;35679;38.732;-121.358;2023-04-01T13:39:42;101966.00;;;13.74
49785;BMP280;35679;38.732;-121.358;2023-04-01T13:48:58;101963.66;;;13.71
49785;BMP280;35679;38.732;-121.358;2023-04-01T13:55:05;101963.13;;;13.67
49785;BMP280;35679;38.732;-121.358;2023-04-01T14:01:04;101952.50;;;13.67
49785;BMP280;35679;38.732;-121.358;2023-04-01T14:07:04;101957.16;;;13.65
49785;BMP280;35679;38.732;-121.358;2023-04-01T14:10:15;101960.63;;;13.66
49785;BMP280;35679;38.732;-121.358;2023-04-01T14:22:46;101975.03;;;13.63
49785;BMP280;35679;38.732;-121.358;2023-04-01T14:32:24;101994.47;;;13.64
49785;BMP280;35679;38.732;-121.358;2023-04-01T14:35:22;101992.78;;;13.63
49785;BMP280;35679;38.732;-121.358;2023-04-01T14:38:27;102001.88;;;13.60
49785;BMP280;35679;38.732;-121.358;2023-04-01T14:51:34;102006.72;;;13.65
49785;BMP280;35679;38.732;-121.358;2023-04-01T14:54:36;102003.41;;;13.63
49785;BMP280;35679;38.732;-121.358;2023-04-01T14:57:31;102007.03;;;13.62
49785;BMP280;35679;38.732;-121.358;2023-04-01T15:00:21;102016.66;;;13.63
49785;BMP280;35679;38.732;-121.358;2023-04-01T15:03:26;102013.16;;;13.62
49785;BMP280;35679;38.732;-121.358;2023-04-01T15:09:32;101996.09;;;13.65
49785;BMP280;35679;38.732;-121.358;2023-04-01T15:12:45;101988.16;;;13.65
49785;BMP280;35679;38.732;-121.358;2023-04-01T15:39:02;101986.72;;;13.70
49785;BMP280;35679;38.732;-121.358;2023-04-01T15:55:00;102003.97;;;13.74
49785;BMP280;35679;38.732;-121.358;2023-04-01T16:01:25;101996.69;;;13.76
49785;BMP280;35679;38.732;-121.358;2023-04-01T16:20:19;102050.25;;;13.79
49785;BMP280;35679;38.732;-121.358;2023-04-01T16:26:25;102058.19;;;13.79
49785;BMP280;35679;38.732;-121.358;2023-04-01T16:29:24;102058.06;;;13.81
49785;BMP280;35679;38.732;-121.358;2023-04-01T16:32:27;102062.53;;;13.80
49785;BMP280;35679;38.732;-121.358;2023-04-01T16:35:59;102066.69;;;13.83
49785;BMP280;35679;38.732;-121.358;2023-04-01T16:38:55;102057.06;;;13.82
49785;BMP280;35679;38.732;-121.358;2023-04-01T16:51:02;102060.94;;;13.87
49785;BMP280;35679;38.732;-121.358;2023-04-01T16:54:28;102061.09;;;13.86
49785;BMP280;35679;38.732;-121.358;2023-04-01T16:57:21;102059.25;;;13.86
49785;BMP280;35679;38.732;-121.358;2023-04-01T17:09:20;102065.91;;;13.90
49785;BMP280;35679;38.732;-121.358;2023-04-01T17:15:56;102062.09;;;13.93
49785;BMP280;35679;38.732;-121.358;2023-04-01T17:40:45;102056.53;;;14.04
49785;BMP280;35679;38.732;-121.358;2023-04-01T17:50:43;102046.53;;;14.15
49785;BMP280;35679;38.732;-121.358;2023-04-01T17:56:34;102043.72;;;14.17
49785;BMP280;35679;38.732;-121.358;2023-04-01T18:00:13;102049.69;;;14.19
49785;BMP280;35679;38.732;-121.358;2023-04-01T18:06:17;102061.34;;;14.26
49785;BMP280;35679;38.732;-121.358;2023-04-01T18:09:38;102071.63;;;14.29
49785;BMP280;35679;38.732;-121.358;2023-04-01T18:15:27;102061.53;;;14.32
49785;BMP280;35679;38.732;-121.358;2023-04-01T18:18:46;102054.09;;;14.36
49785;BMP280;35679;38.732;-121.358;2023-04-01T18:24:45;102055.13;;;14.43
49785;BMP280;35679;38.732;-121.358;2023-04-01T18:27:40;102053.81;;;14.46
49785;BMP280;35679;38.732;-121.358;2023-04-01T18:30:32;102048.69;;;14.53
49785;BMP280;35679;38.732;-121.358;2023-04-01T18:36:51;102038.75;;;14.63
49785;BMP280;35679;38.732;-121.358;2023-04-01T18:39:57;102034.94;;;14.65
49785;BMP280;35679;38.732;-121.358;2023-04-01T18:49:48;102025.03;;;14.83
49785;BMP280;35679;38.732;-121.358;2023-04-01T18:52:43;102043.00;;;14.89
49785;BMP280;35679;38.732;-121.358;2023-04-01T18:56:02;102039.69;;;14.95
49785;BMP280;35679;38.732;-121.358;2023-04-01T18:58:59;102026.06;;;14.98
49785;BMP280;35679;38.732;-121.358;2023-04-01T19:07:51;102021.25;;;15.09
49785;BMP280;35679;38.732;-121.358;2023-04-01T19:23:25;102016.47;;;15.29
49785;BMP280;35679;38.732;-121.358;2023-04-01T19:45:45;101987.56;;;15.50
49785;BMP280;35679;38.732;-121.358;2023-04-01T19:51:56;101986.22;;;15.54
49785;BMP280;35679;38.732;-121.358;2023-04-01T19:55:00;101979.72;;;15.56
49785;BMP280;35679;38.732;-121.358;2023-04-01T20:01:01;101974.91;;;15.60
49785;BMP280;35679;38.732;-121.358;2023-04-01T20:03:58;101964.56;;;15.65
49785;BMP280;35679;38.732;-121.358;2023-04-01T20:07:04;101962.59;;;15.67
49785;BMP280;35679;38.732;-121.358;2023-04-01T20:10:15;101956.59;;;15.73
49785;BMP280;35679;38.732;-121.358;2023-04-01T20:16:13;101951.75;;;15.76
49785;BMP280;35679;38.732;-121.358;2023-04-01T20:19:04;101952.22;;;15.79
49785;BMP280;35679;38.732;-121.358;2023-04-01T20:21:57;101944.91;;;15.81
49785;BMP280;35679;38.732;-121.358;2023-04-01T20:24:49;101939.22;;;15.84
49785;BMP280;35679;38.732;-121.358;2023-04-01T20:27:44;101938.22;;;15.93
49785;BMP280;35679;38.732;-121.358;2023-04-01T20:40:33;101914.19;;;16.09
49785;BMP280;35679;38.732;-121.358;2023-04-01T20:46:44;101910.81;;;16.15
49785;BMP280;35679;38.732;-121.358;2023-04-01T21:06:15;101880.13;;;16.35
49785;BMP280;35679;38.732;-121.358;2023-04-01T21:08:55;101884.75;;;16.41
49785;BMP280;35679;38.732;-121.358;2023-04-01T21:12:14;101874.09;;;16.41
49785;BMP280;35679;38.732;-121.358;2023-04-01T21:15:29;101874.72;;;16.43
49785;BMP280;35679;38.732;-121.358;2023-04-01T21:25:18;101862.38;;;16.50
49785;BMP280;35679;38.732;-121.358;2023-04-01T21:34:50;101841.16;;;16.56
49785;BMP280;35679;38.732;-121.358;2023-04-01T21:37:45;101838.31;;;16.58
49785;BMP280;35679;38.732;-121.358;2023-04-01T21:46:32;101824.75;;;16.67
49785;BMP280;35679;38.732;-121.358;2023-04-01T21:49:37;101818.41;;;16.68
49785;BMP280;35679;38.732;-121.358;2023-04-01T22:02:22;101796.38;;;16.74
49785;BMP280;35679;38.732;-121.358;2023-04-01T22:11:34;101795.75;;;16.87
49785;BMP280;35679;38.732;-121.358;2023-04-01T22:17:38;101789.31;;;16.96
49785;BMP280;35679;38.732;-121.358;2023-04-01T22:23:53;101786.75;;;17.02
49785;BMP280;35679;38.732;-121.358;2023-04-01T22:26:52;101792.75;;;17.04
49785;BMP280;35679;38.732;-121.358;2023-04-01T22:33:08;101772.88;;;17.07
49785;BMP280;35679;38.732;-121.358;2023-04-01T22:39:31;101782.53;;;17.08
49785;BMP280;35679;38.732;-121.358;2023-04-01T22:48:48;101762.56;;;17.18
49785;BMP280;35679;38.732;-121.358;2023-04-01T22:52:02;101757.88;;;17.20
49785;BMP280;35679;38.732;-121.358;2023-04-01T22:55:01;101752.00;;;17.24
49785;BMP280;35679;38.732;-121.358;2023-04-01T22:57:57;101742.00;;;17.26
49785;BMP280;35679;38.732;-121.358;2023-04-01T23:00:55;101738.22;;;17.35
49785;BMP280;35679;38.732;-121.358;2023-04-01T23:03:48;101737.19;;;17.36
49785;BMP280;35679;38.732;-121.358;2023-04-01T23:06:50;101737.19;;;17.36
49785;BMP280;35679;38.732;-121.358;2023-04-01T23:09:41;101735.66;;;17.42
49785;BMP280;35679;38.732;-121.358;2023-04-01T23:12:32;101730.03;;;17.37
49785;BMP280;35679;38.732;-121.358;2023-04-01T23:15:22;101731.66;;;17.38
49785;BMP280;35679;38.732;-121.358;2023-04-01T23:21:21;101743.19;;;17.38
49785;BMP280;35679;38.732;-121.358;2023-04-01T23:24:28;101735.44;;;17.43
49785;BMP280;35679;38.732;-121.358;2023-04-01T23:33:30;101739.19;;;17.49
49785;BMP280;35679;38.732;-121.358;2023-04-01T23:36:20;101739.66;;;17.52
49785;BMP280;35679;38.732;-121.358;2023-04-01T23:39:32;101737.19;;;17.51
49785;BMP280;35679;38.732;-121.358;2023-04-01T23:42:29;101729.63;;;17.54
49785;BMP280;35679;38.732;-121.358;2023-04-01T23:45:19;101728.19;;;17.52
49785;BMP280;35679;38.732;-121.358;2023-04-01T23:48:15;101721.19;;;17.51
49785;BMP280;35679;38.732;-121.358;2023-04-01T23:51:18;101713.78;;;17.53
49785;BMP280;35679;38.732;-121.358;2023-04-01T23:54:31;101712.97;;;17.52
49785;BMP280;35679;38.732;-121.358;2023-04-01T23:57:28;101715.44;;;17.54
